Kansai — JD3272 — position and weather

sailwx.info

Track history (hours):
 
Tides and Currents Weather Stations Pressure Air Temp Water Temp Dewpoint Dewpoint Depression Visibility Wind Speed Wind Dir Waves Ship Positions

Kansai

Last reported at 2014-Sep-15 04:14 UTC. Time now 2014-Sep-16 00:59 UTC.
Position N 34°01' E 135°00'.

Length 73 m; draft 4.2 m.

Type: Cargo ship. MMSI: 431003134.

Date/timePositionNaut miles runAvg speedWind from/ knotsBaromVisibWave heightAir tempDewpointWater temp
2014-Sep-15 04:14N 34°01' E 135°00'810.5
2014-Sep-15 03:28N 34°09' E 134°59'910.0
2014-Sep-15 02:33N 34°18' E 134°59'10 9.8
2014-Sep-15 01:33N 34°27' E 135°01'9 9.0
2014-Sep-15 00:33N 34°36' E 135°02'11 9.7
2014-Sep-14 23:24N 34°40' E 134°50'2 0.0
2014-Sep-13 10:27N 34°39' E 134°51'1010.6
2014-Sep-13 09:32N 34°37' E 135°02'8 8.5
2014-Sep-13 08:33N 34°28' E 135°03'  
2014-Sep-10 19:03N 33°57' E 135°00'511.0
2014-Sep-10 18:33N 34°02' E 134°60'1211.5
2014-Sep-10 17:33N 34°13' E 134°59'1312.5
2014-Sep-10 16:33N 34°26' E 135°01'1111.0
2014-Sep-10 15:34N 34°37' E 135°01'11 1.8
2014-Sep-10 09:32N 34°41' E 134°49'1 0.2
2014-Sep-10 04:05N 34°41' E 134°50'5 9.5
2014-Sep-10 03:33N 34°37' E 134°55'9 9.0
2014-Sep-10 02:33N 34°33' E 135°04'  
2014-Sep-05 23:19N 33°57' E 134°59'911.1
2014-Sep-05 22:33N 34°06' E 134°59'1310.0
2014-Sep-05 21:15N 34°19' E 134°59'710.1
2014-Sep-05 20:33N 34°26' E 135°01'10 9.9
2014-Sep-05 19:33N 34°36' E 135°03'10 9.1
2014-Sep-05 18:31N 34°38' E 134°52'  
Track history (hours):
 
Tides and Currents Weather Stations Pressure Air Temp Water Temp Dewpoint Dewpoint Depression Visibility Wind Speed Wind Dir Waves Ship Positions

Kansai

Last reported at 2014-Sep-15 04:14 UTC. Time now 2014-Sep-16 00:59 UTC.
Position N 34°01' E 135°00'.

Length 73 m; draft 4.2 m.

Type: Cargo ship. MMSI: 431003134.

Date/timePositionNaut miles runAvg speedWind from/ knotsBaromVisibWave heightAir tempDewpointWater temp
2014-Sep-15 04:14N 34°01' E 135°00'810.5
2014-Sep-15 03:28N 34°09' E 134°59'910.0
2014-Sep-15 02:33N 34°18' E 134°59'10 9.8
2014-Sep-15 01:33N 34°27' E 135°01'9 9.0
2014-Sep-15 00:33N 34°36' E 135°02'11 9.7
2014-Sep-14 23:24N 34°40' E 134°50'2 0.0
2014-Sep-13 10:27N 34°39' E 134°51'1010.6
2014-Sep-13 09:32N 34°37' E 135°02'8 8.5
2014-Sep-13 08:33N 34°28' E 135°03'  
2014-Sep-10 19:03N 33°57' E 135°00'511.0
2014-Sep-10 18:33N 34°02' E 134°60'1211.5
2014-Sep-10 17:33N 34°13' E 134°59'1312.5
2014-Sep-10 16:33N 34°26' E 135°01'1111.0
2014-Sep-10 15:34N 34°37' E 135°01'11 1.8
2014-Sep-10 09:32N 34°41' E 134°49'1 0.2
2014-Sep-10 04:05N 34°41' E 134°50'5 9.5
2014-Sep-10 03:33N 34°37' E 134°55'9 9.0
2014-Sep-10 02:33N 34°33' E 135°04'  
2014-Sep-05 23:19N 33°57' E 134°59'911.1
2014-Sep-05 22:33N 34°06' E 134°59'1310.0
2014-Sep-05 21:15N 34°19' E 134°59'710.1
2014-Sep-05 20:33N 34°26' E 135°01'10 9.9
2014-Sep-05 19:33N 34°36' E 135°03'10 9.1
2014-Sep-05 18:31N 34°38' E 134°52'  

Dump ship's entire track history